Time;durP1;ratioP1;P1;durP2;ratioP2;P2;SDS_P1;SDS_P2;PMS_P1;PMS_P2;Temp;Humidity;BMP_temperature;BMP_pressure;BME280_temperature;BME280_humidity;BME280_pressure;Samples;Min_cycle;Max_cycle;Signal;HPM_P1;HPM_P2
2022/11/21 00:00:01;;;;;;;25.38;16.58;;;;;;;;;;5057722;28;20066;-56
2022/11/21 00:02:27;;;;;;;25.42;15.48;;;;;;;;;;5053558;28;20113;-56
2022/11/21 00:04:53;;;;;;;27.75;15.93;;;;;;;;;;5055477;28;20502;-56
2022/11/21 00:07:19;;;;;;;23.15;15.13;;;2.30;99.90;;;;;;5056375;28;20048;-57
2022/11/21 00:09:45;;;;;;;24.35;15.88;;;;;;;;;;5043132;28;20041;-56
2022/11/21 00:12:11;;;;;;;25.67;15.35;;;;;;;;;;5057778;28;20032;-56
2022/11/21 00:14:37;;;;;;;24.20;15.63;;;;;;;;;;5031151;28;20041;-57
2022/11/21 00:17:03;;;;;;;22.83;14.38;;;;;;;;;;5049506;28;20375;-56
2022/11/21 00:19:29;;;;;;;25.23;15.93;;;;;;;;;;5057148;28;20037;-57
2022/11/21 00:21:55;;;;;;;23.63;15.50;;;;;;;;;;5054652;28;20055;-57
2022/11/21 00:24:21;;;;;;;23.15;15.27;;;;;;;;;;5053644;28;20429;-56
2022/11/21 00:26:47;;;;;;;22.90;15.07;;;;;;;;;;5056972;28;20128;-57
2022/11/21 00:29:12;;;;;;;24.50;15.45;;;2.30;99.90;;;;;;5058471;28;20045;-56
2022/11/21 00:31:38;;;;;;;26.63;16.25;;;2.30;99.90;;;;;;5058105;28;20495;-57
2022/11/21 00:34:04;;;;;;;22.85;15.07;;;;;;;;;;5060161;28;20090;-56
2022/11/21 00:36:30;;;;;;;24.70;15.65;;;;;;;;;;5057413;28;20040;-57
2022/11/21 00:38:56;;;;;;;25.05;16.67;;;;;;;;;;5056542;28;20060;-57
2022/11/21 00:41:22;;;;;;;23.50;15.80;;;;;;;;;;5059235;28;20071;-56
2022/11/21 00:43:48;;;;;;;25.48;16.45;;;;;;;;;;5053950;28;20048;-56
2022/11/21 00:46:14;;;;;;;25.92;16.30;;;;;;;;;;5066525;28;20513;-57
2022/11/21 00:48:40;;;;;;;22.67;14.93;;;;;;;;;;5036407;28;20099;-57
2022/11/21 00:51:06;;;;;;;27.17;17.67;;;2.40;99.90;;;;;;5060659;28;20040;-57
2022/11/21 00:53:31;;;;;;;24.02;15.80;;;2.40;99.90;;;;;;5066242;28;20047;-56
2022/11/21 00:55:57;;;;;;;26.85;16.70;;;;;;;;;;5059664;28;20517;-57
2022/11/21 00:58:23;;;;;;;25.77;16.33;;;;;;;;;;5065228;28;20107;-56
2022/11/21 01:00:50;;;;;;;25.08;16.45;;;;;;;;;;5055792;28;20079;-56
2022/11/21 01:03:16;;;;;;;27.95;16.17;;;;;;;;;;5042269;28;20091;-56
2022/11/21 01:05:42;;;;;;;29.05;16.27;;;;;;;;;;5054740;28;20045;-57
2022/11/21 01:08:08;;;;;;;22.98;14.65;;;;;;;;;;5052251;28;20056;-57
2022/11/21 01:10:34;;;;;;;23.10;15.45;;;2.30;99.90;;;;;;5046910;28;20064;-56
2022/11/21 01:13:00;;;;;;;27.25;17.00;;;;;;;;;;5054917;28;20149;-56
2022/11/21 01:15:26;;;;;;;26.70;16.33;;;;;;;;;;5061384;28;20112;-57
2022/11/21 01:17:52;;;;;;;25.50;16.00;;;;;;;;;;5055299;28;20665;-57
2022/11/21 01:20:18;;;;;;;23.40;15.52;;;;;;;;;;5064924;28;20079;-57
2022/11/21 01:22:45;;;;;;;25.70;15.65;;;;;;;;;;5062121;28;20045;-56
2022/11/21 01:25:11;;;;;;;25.27;16.17;;;;;;;;;;5066957;28;20041;-57
2022/11/21 01:27:36;;;;;;;25.08;16.15;;;2.10;99.90;;;;;;5056954;28;20037;-57
2022/11/21 01:30:02;;;;;;;28.17;16.65;;;2.10;99.90;;;;;;5066603;28;20485;-57
2022/11/21 01:32:28;;;;;;;27.25;16.20;;;;;;;;;;5064874;28;20426;-57
2022/11/21 01:34:54;;;;;;;24.33;15.65;;;;;;;;;;5053784;28;20553;-56
2022/11/21 01:37:20;;;;;;;25.73;16.63;;;;;;;;;;5062467;28;20112;-55
2022/11/21 01:39:46;;;;;;;24.13;15.70;;;;;;;;;;5060449;28;20037;-56
2022/11/21 01:42:13;;;;;;;25.55;16.15;;;;;;;;;;5064458;28;20047;-57
2022/11/21 01:44:50;;;;;;;26.20;17.52;;;1.40;99.90;;;;;;5063858;28;20049;-57
2022/11/21 01:47:16;;;;;;;28.38;18.55;;;1.50;99.90;;;;;;5039315;28;20040;-56
2022/11/21 01:49:43;;;;;;;28.52;17.65;;;;;;;;;;5065678;28;20083;-57
2022/11/21 01:52:16;;;;;;;29.48;18.02;;;;;;;;;;5056418;28;20417;-56
2022/11/21 01:54:45;;;;;;;28.73;17.13;;;;;;;;;;5064507;28;20041;-56
2022/11/21 01:57:11;;;;;;;28.50;18.13;;;;;;;;;;5056384;28;20062;-57
2022/11/21 01:59:44;;;;;;;28.15;17.05;;;;;;;;;;5061696;28;20083;-56
2022/11/21 02:02:11;;;;;;;29.27;17.85;;;;;;;;;;5057591;28;20386;-57
2022/11/21 02:04:41;;;;;;;27.48;17.73;;;1.10;99.90;;;;;;5061139;28;20060;-57
2022/11/21 02:07:07;;;;;;;28.08;17.58;;;;;;;;;;5040993;28;20040;-57
2022/11/21 02:09:35;;;;;;;29.30;17.95;;;;;;;;;;5043001;28;20053;-57
2022/11/21 02:12:04;;;;;;;29.05;17.88;;;;;;;;;;5062586;28;20039;-56
2022/11/21 02:14:31;;;;;;;28.67;16.42;;;;;;;;;;5044291;28;20047;-57
2022/11/21 02:17:01;;;;;;;33.05;17.15;;;0.40;99.90;;;;;;5055528;28;20159;-56
2022/11/21 02:19:33;;;;;;;30.90;19.25;;;;;;;;;;5063958;28;20036;-56
2022/11/21 02:22:23;;;;;;;30.58;19.48;;;0.80;99.90;;;;;;5032334;28;20041;-57
2022/11/21 02:25:04;;;;;;;27.42;18.27;;;;;;;;;;5059866;28;20049;-57
2022/11/21 02:27:30;;;;;;;32.33;19.35;;;;;;;;;;5068178;28;20041;-56
2022/11/21 02:29:56;;;;;;;32.33;19.60;;;0.20;99.90;;;;;;5053596;28;20040;-56
2022/11/21 02:32:24;;;;;;;29.48;19.75;;;-0.10;99.90;;;;;;5054764;28;20029;-56
2022/11/21 02:34:50;;;;;;;32.63;19.27;;;;;;;;;;5059006;28;20528;-56
2022/11/21 02:37:16;;;;;;;31.63;21.25;;;;;;;;;;5060424;28;20070;-56
2022/11/21 02:39:44;;;;;;;34.65;20.35;;;0.50;99.90;;;;;;5041832;28;20045;-56
2022/11/21 02:42:42;;;;;;;35.92;21.83;;;;;;;;;;5058494;28;20040;-57
2022/11/21 02:45:19;;;;;;;38.70;21.33;;;0.90;99.90;;;;;;4989889;28;20148;-57
2022/11/21 02:47:49;;;;;;;36.47;21.33;;;0.20;99.90;;;;;;5061935;28;20446;-55
2022/11/21 02:50:19;;;;;;;36.28;21.35;;;;;;;;;;5049008;28;20032;-55
2022/11/21 02:52:45;;;;;;;35.05;20.58;;;;;;;;;;5061402;28;20086;-56
2022/11/21 02:55:12;;;;;;;35.33;21.42;;;0.20;99.90;;;;;;5061211;28;20040;-57
2022/11/21 02:57:38;;;;;;;37.92;22.85;;;0.30;99.90;;;;;;5039659;28;20040;-57
2022/11/21 03:00:05;;;;;;;34.10;22.10;;;0.20;99.90;;;;;;5056830;28;20051;-56
2022/11/21 03:02:31;;;;;;;35.00;21.73;;;;;;;;;;5054985;28;20041;-54
2022/11/21 03:07:25;;;;;;;38.55;22.08;;;;;;;;;;5028728;28;20044;-55
2022/11/21 03:09:52;;;;;;;35.88;20.08;;;;;;;;;;5044871;28;20065;-55
2022/11/21 03:12:18;;;;;;;35.25;22.15;;;;;;;;;;5036067;28;20507;-56
2022/11/21 03:14:44;;;;;;;36.95;22.65;;;;;;;;;;5038287;28;20038;-56
2022/11/21 03:17:10;;;;;;;36.72;21.45;;;;;;;;;;5022722;28;20510;-56
2022/11/21 03:19:36;;;;;;;34.78;21.55;;;0.00;99.90;;;;;;5040031;28;20041;-56
2022/11/21 03:22:02;;;;;;;37.28;21.70;;;;;;;;;;5042899;28;20036;-57
2022/11/21 03:24:28;;;;;;;34.83;20.70;;;;;;;;;;5037243;28;20120;-58
2022/11/21 03:26:54;;;;;;;35.85;21.33;;;;;;;;;;5039007;28;20052;-56
2022/11/21 03:29:20;;;;;;;34.80;21.83;;;;;;;;;;5036352;28;20046;-56
2022/11/21 03:31:46;;;;;;;37.17;21.33;;;;;;;;;;5040582;28;20033;-56
2022/11/21 03:34:12;;;;;;;36.08;22.27;;;;;;;;;;5035550;28;20101;-56
2022/11/21 03:36:38;;;;;;;31.80;20.85;;;;;;;;;;5037982;28;20147;-57
2022/11/21 03:39:04;;;;;;;34.47;21.40;;;;;;;;;;5042183;28;20537;-56
2022/11/21 03:41:30;;;;;;;34.13;19.80;;;0.20;99.90;;;;;;5019059;28;20052;-56
2022/11/21 03:44:03;;;;;;;36.45;20.83;;;;;;;;;;5042378;28;20025;-56
2022/11/21 03:46:30;;;;;;;34.40;21.77;;;;;;;;;;5031645;28;20041;-56
2022/11/21 03:48:56;;;;;;;36.80;20.83;;;0.40;99.90;;;;;;5035812;28;20499;-57
2022/11/21 03:51:22;;;;;;;34.20;20.52;;;;;;;;;;5035119;28;20033;-56
2022/11/21 03:53:48;;;;;;;33.85;19.95;;;;;;;;;;5038557;28;20418;-58
2022/11/21 03:56:14;;;;;;;34.25;19.95;;;;;;;;;;5006875;28;20041;-58
2022/11/21 03:58:40;;;;;;;29.27;18.55;;;;;;;;;;5040684;28;20076;-58
2022/11/21 04:01:06;;;;;;;31.85;19.52;;;;;;;;;;5043235;28;20072;-57
2022/11/21 04:03:33;;;;;;;33.88;20.10;;;;;;;;;;5024340;28;20282;-57
2022/11/21 04:05:59;;;;;;;35.25;21.38;;;;;;;;;;5040743;28;20504;-57
2022/11/21 04:08:25;;;;;;;32.80;18.92;;;;;;;;;;5036531;28;20068;-57
2022/11/21 04:10:52;;;;;;;32.25;19.58;;;0.00;99.90;;;;;;5039865;28;20037;-57
2022/11/21 04:13:19;;;;;;;32.88;19.42;;;;;;;;;;5029294;28;20033;-57
2022/11/21 04:15:45;;;;;;;31.98;19.95;;;;;;;;;;5024615;28;20176;-57
2022/11/21 04:18:12;;;;;;;33.10;21.58;;;0.00;99.90;;;;;;5040222;28;20070;-57
2022/11/21 04:20:38;;;;;;;37.30;21.02;;;0.00;99.90;;;;;;5042656;28;20037;-57
2022/11/21 04:23:04;;;;;;;35.17;20.52;;;;;;;;;;5042491;28;20033;-57
2022/11/21 04:25:31;;;;;;;36.67;21.02;;;0.30;99.90;;;;;;5037990;28;20053;-57
2022/11/21 04:28:00;;;;;;;35.72;21.55;;;;;;;;;;5051081;28;20036;-57
2022/11/21 04:30:27;;;;;;;35.28;21.65;;;-0.10;99.90;;;;;;5034711;28;20038;-56
2022/11/21 04:32:54;;;;;;;35.47;22.15;;;-0.10;99.90;;;;;;5040851;28;20033;-57
2022/11/21 04:35:20;;;;;;;37.65;20.98;;;-0.20;99.90;;;;;;5038590;28;20041;-56
2022/11/21 04:37:47;;;;;;;36.80;23.40;;;;;;;;;;5040760;28;20042;-56
2022/11/21 04:40:13;;;;;;;37.13;22.88;;;;;;;;;;5048606;28;20540;-57
2022/11/21 04:42:43;;;;;;;37.15;23.55;;;;;;;;;;5042295;28;20075;-56
2022/11/21 04:45:10;;;;;;;40.75;24.00;;;;;;;;;;5054467;28;20047;-56
2022/11/21 04:47:36;;;;;;;40.22;23.00;;;;;;;;;;5043260;28;20081;-56
2022/11/21 04:50:02;;;;;;;37.85;23.58;;;-0.20;99.90;;;;;;5043949;28;20041;-56
2022/11/21 04:52:28;;;;;;;38.30;21.95;;;;;;;;;;5040898;28;20462;-56
2022/11/21 04:54:54;;;;;;;40.35;24.23;;;0.20;99.90;;;;;;5041637;28;20058;-56
2022/11/21 04:57:20;;;;;;;41.38;23.35;;;;;;;;;;5037622;28;20558;-56
2022/11/21 04:59:46;;;;;;;43.58;24.10;;;;;;;;;;5047222;28;20042;-56
2022/11/21 05:02:12;;;;;;;45.92;24.90;;;;;;;;;;5047925;28;20033;-56
2022/11/21 05:04:39;;;;;;;41.38;22.95;;;;;;;;;;5039356;28;20467;-57
2022/11/21 05:07:05;;;;;;;39.15;22.55;;;;;;;;;;5045649;28;20575;-57
2022/11/21 05:09:31;;;;;;;45.17;25.00;;;;;;;;;;5040400;28;20265;-57
2022/11/21 05:14:41;;;;;;;45.28;25.48;;;;;;;;;;5040831;28;20041;-55
2022/11/21 05:17:07;;;;;;;44.90;25.90;;;;;;;;;;5047611;28;20058;-57
2022/11/21 05:19:33;;;;;;;47.85;24.67;;;-0.20;99.90;;;;;;5025357;28;20037;-55
2022/11/21 05:21:59;;;;;;;45.22;25.35;;;;;;;;;;5040737;28;20099;-57
2022/11/21 05:24:25;;;;;;;43.65;24.52;;;-0.20;99.90;;;;;;5044933;28;20301;-56
2022/11/21 05:26:51;;;;;;;44.03;26.30;;;;;;;;;;5042306;28;20059;-56
2022/11/21 05:29:17;;;;;;;38.50;23.30;;;;;;;;;;5038425;28;20041;-55
2022/11/21 05:31:43;;;;;;;47.72;27.90;;;;;;;;;;5037079;28;20064;-56
2022/11/21 05:34:09;;;;;;;44.70;25.65;;;;;;;;;;5040065;28;20351;-56
2022/11/21 05:36:35;;;;;;;44.47;25.35;;;;;;;;;;5025138;28;20437;-56
2022/11/21 05:39:01;;;;;;;45.60;25.83;;;;;;;;;;5040051;28;20102;-55
2022/11/21 05:41:26;;;;;;;44.97;25.23;;;0.00;99.90;;;;;;5022832;28;20503;-56
2022/11/21 05:43:52;;;;;;;47.88;26.98;;;;;;;;;;5044959;28;20033;-56
2022/11/21 05:46:23;;;;;;;48.05;27.10;;;;;;;;;;5040165;28;20095;-56
2022/11/21 05:48:50;;;;;;;48.47;25.90;;;0.10;99.90;;;;;;5011965;28;20391;-56
2022/11/21 05:51:17;;;;;;;46.60;25.58;;;;;;;;;;5021228;28;20038;-53
2022/11/21 05:53:44;;;;;;;48.47;25.90;;;0.00;99.90;;;;;;5006450;28;20033;-54
2022/11/21 05:56:15;;;;;;;47.00;25.95;;;0.90;99.90;;;;;;5036521;28;20037;-55
2022/11/21 05:58:42;;;;;;;45.35;26.48;;;;;;;;;;5036653;28;20080;-55
2022/11/21 06:01:08;;;;;;;45.38;24.85;;;;;;;;;;5037718;28;20041;-56
2022/11/21 06:03:39;;;;;;;50.33;25.65;;;0.10;99.90;;;;;;5020162;28;20606;-55
2022/11/21 06:06:06;;;;;;;42.45;24.67;;;;;;;;;;5023251;28;20050;-56
2022/11/21 06:08:40;;;;;;;44.80;25.35;;;0.10;99.90;;;;;;5022034;28;20041;-55
2022/11/21 06:11:07;;;;;;;46.00;26.13;;;-0.20;99.90;;;;;;5041098;28;20041;-56
2022/11/21 06:13:33;;;;;;;46.40;24.00;;;0.00;99.90;;;;;;5031894;28;20058;-56
2022/11/21 06:16:07;;;;;;;43.70;24.02;;;;;;;;;;5038131;28;20058;-56
2022/11/21 06:18:37;;;;;;;41.95;25.67;;;;;;;;;;5006848;28;20044;-56
2022/11/21 06:21:08;;;;;;;43.47;25.38;;;;;;;;;;5026254;28;20123;-57
2022/11/21 06:23:35;;;;;;;42.72;24.63;;;;;;;;;;5043839;28;20041;-56
2022/11/21 06:26:02;;;;;;;43.55;24.58;;;;;;;;;;5052066;28;20036;-57
2022/11/21 06:28:32;;;;;;;46.28;27.30;;;;;;;;;;5039870;28;20069;-57
2022/11/21 06:31:09;;;;;;;47.75;25.98;;;;;;;;;;5044288;28;20486;-57
2022/11/21 06:33:36;;;;;;;47.85;25.00;;;;;;;;;;5041717;28;20499;-57
2022/11/21 06:36:05;;;;;;;42.55;25.17;;;;;;;;;;5043875;28;20068;-57
2022/11/21 06:38:32;;;;;;;47.72;27.75;;;;;;;;;;5042497;28;20036;-57
2022/11/21 06:40:58;;;;;;;47.20;26.55;;;;;;;;;;5039314;28;20044;-55
2022/11/21 06:43:26;;;;;;;44.13;23.58;;;0.00;99.90;;;;;;5019182;28;20278;-56
2022/11/21 06:45:54;;;;;;;51.45;27.35;;;;;;;;;;5034737;28;20506;-56
2022/11/21 06:48:20;;;;;;;53.85;27.35;;;;;;;;;;5024556;28;20044;-56
2022/11/21 06:50:46;;;;;;;55.30;29.08;;;;;;;;;;5034307;28;20403;-55
2022/11/21 06:53:12;;;;;;;52.22;28.23;;;;;;;;;;5034620;28;20224;-57
2022/11/21 06:55:38;;;;;;;45.92;25.50;;;;;;;;;;5037024;28;20091;-56
2022/11/21 06:58:04;;;;;;;49.25;26.27;;;;;;;;;;5040688;28;20450;-57
2022/11/21 07:00:30;;;;;;;48.33;28.10;;;;;;;;;;5012123;28;20048;-56
2022/11/21 07:03:01;;;;;;;48.25;27.00;;;0.00;99.90;;;;;;5040946;28;20123;-56
2022/11/21 07:05:27;;;;;;;49.15;28.45;;;;;;;;;;5135786;22;20149;-56
2022/11/21 07:07:59;;;;;;;52.85;27.33;;;;;;;;;;5027239;28;20042;-57
2022/11/21 07:10:25;;;;;;;56.22;29.05;;;;;;;;;;5039288;28;20036;-56
2022/11/21 07:15:36;;;;;;;60.28;30.98;;;;;;;;;;5049225;28;20511;-55
2022/11/21 07:18:02;;;;;;;54.95;28.27;;;;;;;;;;5046875;28;20052;-57
2022/11/21 07:20:28;;;;;;;63.50;30.33;;;;;;;;;;5046045;28;20046;-56
2022/11/21 07:22:54;;;;;;;56.72;29.95;;;0.00;99.90;;;;;;5051511;28;20415;-55
2022/11/21 07:25:20;;;;;;;59.55;29.98;;;-0.10;99.90;;;;;;5028491;28;20033;-57
2022/11/21 07:27:46;;;;;;;59.97;29.92;;;0.00;99.90;;;;;;5040206;28;20041;-55
2022/11/21 07:30:12;;;;;;;57.15;28.95;;;0.10;99.90;;;;;;5042752;28;20025;-56
2022/11/21 07:32:38;;;;;;;60.50;28.45;;;-0.10;99.90;;;;;;5039787;28;20130;-56
2022/11/21 07:35:04;;;;;;;54.92;28.35;;;;;;;;;;5040873;28;20064;-57
2022/11/21 07:37:30;;;;;;;47.10;26.00;;;;;;;;;;5079855;22;20045;-63
2022/11/21 07:39:56;;;;;;;54.40;28.20;;;;;;;;;;5031565;28;20050;-63
2022/11/21 07:42:22;;;;;;;49.10;26.98;;;;;;;;;;5030975;28;20063;-63
2022/11/21 07:44:48;;;;;;;48.38;26.08;;;;;;;;;;5031290;28;20128;-63
2022/11/21 07:47:14;;;;;;;49.13;26.60;;;;;;;;;;5029200;28;20076;-62
2022/11/21 07:49:40;;;;;;;51.45;27.35;;;0.00;99.90;;;;;;5022327;28;20077;-62
2022/11/21 07:52:06;;;;;;;44.38;24.58;;;;;;;;;;5105226;22;20052;-57
2022/11/21 07:54:32;;;;;;;50.28;26.35;;;;;;;;;;5049036;28;20497;-58
2022/11/21 07:56:58;;;;;;;44.13;25.15;;;;;;;;;;5049642;28;20112;-58
2022/11/21 07:59:24;;;;;;;49.60;25.77;;;;;;;;;;5035291;28;20149;-58
2022/11/21 08:01:51;;;;;;;48.35;25.17;;;;;;;;;;5038409;28;20403;-57
2022/11/21 08:04:17;;;;;;;46.53;25.27;;;;;;;;;;5042158;28;20037;-56
2022/11/21 08:06:43;;;;;;;45.55;25.27;;;;;;;;;;5049513;28;20037;-58
2022/11/21 08:09:09;;;;;;;43.13;25.33;;;0.30;99.90;;;;;;5040418;28;20045;-58
2022/11/21 08:11:36;;;;;;;47.50;24.80;;;1.30;99.90;;;;;;5033185;28;20090;-58
2022/11/21 08:14:01;;;;;;;45.47;26.40;;;0.60;99.90;;;;;;5036049;28;20037;-55
2022/11/21 08:16:31;;;;;;;43.03;24.58;;;;;;;;;;5034061;28;20606;-58
2022/11/21 08:18:57;;;;;;;42.05;24.15;;;;;;;;;;5033579;28;20045;-57
2022/11/21 08:21:23;;;;;;;44.80;25.27;;;;;;;;;;5041193;28;20037;-56
2022/11/21 08:23:49;;;;;;;47.65;26.73;;;;;;;;;;5031787;28;20044;-58
2022/11/21 08:26:16;;;;;;;44.92;25.13;;;;;;;;;;5039008;28;20251;-58
2022/11/21 08:28:42;;;;;;;47.10;25.58;;;;;;;;;;5031755;28;20171;-56
2022/11/21 08:31:08;;;;;;;49.65;25.02;;;;;;;;;;5053637;22;20045;-65
2022/11/21 08:33:34;;;;;;;47.58;24.30;;;;;;;;;;5048139;28;20044;-66
2022/11/21 08:36:04;;;;;;;48.28;26.50;;;;;;;;;;5053964;28;20035;-66
2022/11/21 08:38:30;;;;;;;45.67;22.98;;;;;;;;;;5056324;28;20032;-66
2022/11/21 08:43:40;;;;;;;38.63;21.63;;;1.00;99.90;;;;;;5052283;28;20049;-67
2022/11/21 08:46:06;;;;;;;44.55;23.50;;;;;;;;;;5049266;28;20043;-68
2022/11/21 08:48:32;;;;;;;38.72;21.38;;;;;;;;;;5050235;28;20480;-68
2022/11/21 08:50:58;;;;;;;38.80;22.25;;;;;;;;;;5049377;28;20120;-68
2022/11/21 08:53:24;;;;;;;39.30;21.67;;;;;;;;;;5054145;28;20040;-66
2022/11/21 08:55:50;;;;;;;38.28;20.52;;;;;;;;;;5065040;28;20040;-67
2022/11/21 08:58:16;;;;;;;35.47;19.90;;;;;;;;;;5067423;28;20109;-68
2022/11/21 09:00:42;;;;;;;38.72;21.98;;;;;;;;;;5065286;28;20048;-66
2022/11/21 09:03:07;;;;;;;34.55;21.30;;;1.40;99.90;;;;;;5071212;28;20036;-67
2022/11/21 09:05:33;;;;;;;35.70;19.95;;;1.50;99.90;;;;;;5067043;28;20537;-67
2022/11/21 09:07:59;;;;;;;36.72;21.95;;;;;;;;;;5048913;28;20044;-70
2022/11/21 09:10:26;;;;;;;31.27;17.77;;;1.70;99.90;;;;;;5055245;28;20036;-68
2022/11/21 09:12:52;;;;;;;33.83;18.55;;;1.50;99.90;;;;;;5057643;28;20091;-67
2022/11/21 09:18:03;;;;;;;;;;;1.30;99.90;;;;;;5066272;28;20379;-69
2022/11/21 09:20:30;;;;;;;31.88;17.13;;;;;;;;;;5061127;28;19924;-68
2022/11/21 09:22:56;;;;;;;29.92;17.48;;;;;;;;;;5056492;28;20045;-69
2022/11/21 09:25:22;;;;;;;30.35;17.33;;;;;;;;;;5059973;28;20032;-66
2022/11/21 09:27:48;;;;;;;33.47;18.65;;;;;;;;;;5053837;28;20506;-69
2022/11/21 09:30:15;;;;;;;29.42;17.00;;;;;;;;;;5026254;28;1060383;-67
2022/11/21 09:32:41;;;;;;;26.85;16.35;;;;;;;;;;5067128;28;20048;-67
2022/11/21 09:35:07;;;;;;;25.23;16.20;;;;;;;;;;5067886;28;20052;-67
2022/11/21 09:37:37;;;;;;;24.80;14.65;;;;;;;;;;5067715;28;20111;-67
2022/11/21 09:40:03;;;;;;;29.20;16.85;;;;;;;;;;5066337;28;20036;-67
2022/11/21 09:42:41;;;;;;;28.55;16.67;;;;;;;;;;5052680;28;20496;-69
2022/11/21 09:45:15;;;;;;;29.77;16.95;;;;;;;;;;5065349;28;20041;-70
2022/11/21 09:47:44;;;;;;;28.02;16.80;;;2.60;99.90;;;;;;5061563;28;20037;-66
2022/11/21 09:50:13;;;;;;;25.25;16.00;;;;;;;;;;5061741;28;20071;-66
2022/11/21 09:53:00;;;;;;;26.27;15.93;;;2.10;99.90;;;;;;5056148;28;20041;-68
2022/11/21 09:55:31;;;;;;;26.05;15.15;;;;;;;;;;5058730;28;20033;-66
2022/11/21 09:58:03;;;;;;;25.33;15.68;;;2.40;99.90;;;;;;5053352;28;20036;-69
2022/11/21 10:00:29;;;;;;;22.67;12.88;;;2.70;99.90;;;;;;5059721;28;20033;-64
2022/11/21 10:02:56;;;;;;;19.95;12.25;;;2.70;99.90;;;;;;5050752;28;20510;-66
2022/11/21 10:05:50;;;;;;;23.15;13.77;;;2.80;99.90;;;;;;5058810;28;20048;-70
2022/11/21 10:08:26;;;;;;;22.13;13.55;;;;;;;;;;5039350;28;20037;-69
2022/11/21 10:11:04;;;;;;;22.35;12.30;;;3.50;99.90;;;;;;5054900;28;20044;-70
2022/11/21 10:13:42;;;;;;;21.58;12.85;;;3.00;99.90;;;;;;5056604;28;20036;-70
2022/11/21 10:16:11;;;;;;;23.42;13.27;;;;;;;;;;5053935;28;20072;-70
2022/11/21 10:18:37;;;;;;;23.88;13.48;;;;;;;;;;5055274;28;20041;-69
2022/11/21 10:21:22;;;;;;;22.58;13.50;;;;;;;;;;5051132;28;20132;-71
2022/11/21 10:23:54;;;;;;;21.13;13.23;;;;;;;;;;5056771;28;20051;-72
2022/11/21 10:26:22;;;;;;;22.38;12.52;;;;;;;;;;5060706;28;20311;-70
2022/11/21 10:28:56;;;;;;;20.13;12.30;;;;;;;;;;5064594;28;20408;-69
2022/11/21 10:31:23;;;;;;;20.60;12.30;;;;;;;;;;5069644;28;20048;-71
2022/11/21 10:33:50;;;;;;;22.83;12.27;;;;;;;;;;5063361;28;20037;-69
2022/11/21 10:36:39;;;;;;;20.45;12.43;;;2.90;99.90;;;;;;5070015;28;20466;-69
2022/11/21 10:39:10;;;;;;;15.88;10.45;;;;;;;;;;5063361;28;20040;-69
2022/11/21 10:41:41;;;;;;;18.15;11.13;;;;;;;;;;5068781;28;20044;-68
2022/11/21 10:47:15;;;;;;;21.45;13.40;;;;;;;;;;5064671;28;20045;-72
2022/11/21 10:49:41;;;;;;;16.70;10.57;;;;;;;;;;5057424;28;20048;-68
2022/11/21 10:52:12;;;;;;;17.73;11.20;;;;;;;;;;5058599;28;20053;-70
2022/11/21 10:54:57;;;;;;;18.65;11.18;;;;;;;;;;5054080;28;20040;-71
2022/11/21 10:57:27;;;;;;;20.80;13.23;;;;;;;;;;5058737;28;20036;-69
2022/11/21 11:00:01;;;;;;;18.20;11.38;;;3.00;99.90;;;;;;5055321;28;20052;-69
2022/11/21 11:02:27;;;;;;;18.23;11.07;;;;;;;;;;5053983;28;20615;-66
2022/11/21 11:05:23;;;;;;;23.05;11.48;;;3.70;99.90;;;;;;5052731;28;20045;-67
2022/11/21 11:08:09;;;;;;;18.17;11.23;;;;;;;;;;5043467;28;20102;-69
2022/11/21 11:10:37;;;;;;;17.92;11.48;;;;;;;;;;5055125;28;20036;-69
2022/11/21 11:16:11;;;;;;;18.88;10.82;;;;;;;;;;5054117;28;20426;-68
2022/11/21 11:18:38;;;;;;;18.60;11.93;;;;;;;;;;5056610;28;20037;-68
2022/11/21 11:21:13;;;;;;;14.65;9.82;;;;;;;;;;5064670;28;20063;-69
2022/11/21 11:23:39;;;;;;;16.00;10.20;;;;;;;;;;5063984;28;20133;-71
2022/11/21 11:26:17;;;;;;;17.10;10.48;;;;;;;;;;5057137;28;20052;-70
2022/11/21 11:28:43;;;;;;;15.88;10.23;;;;;;;;;;5052809;28;20041;-72
2022/11/21 11:31:09;;;;;;;16.70;9.93;;;;;;;;;;5063462;28;20039;-70
2022/11/21 11:33:39;;;;;;;17.02;10.20;;;;;;;;;;5056189;28;20037;-66
2022/11/21 11:36:08;;;;;;;14.40;9.30;;;;;;;;;;5061372;28;20051;-66
2022/11/21 11:38:35;;;;;;;15.38;9.38;;;;;;;;;;5053997;28;20108;-66
2022/11/21 11:41:02;;;;;;;14.93;9.48;;;;;;;;;;5065288;28;20047;-66
2022/11/21 11:52:32;;;;;;;14.30;8.77;;;;;;;;;;5052977;28;20494;-65
2022/11/21 11:55:25;;;;;;;14.85;9.38;;;4.60;99.90;;;;;;5081225;28;20035;-65
2022/11/21 11:57:54;;;;;;;14.35;9.05;;;5.10;99.90;;;;;;5067209;28;20041;-65
2022/11/21 12:00:30;;;;;;;13.65;8.30;;;;;;;;;;5061002;28;20036;-66
2022/11/21 12:03:07;;;;;;;12.65;8.32;;;4.70;99.90;;;;;;5065276;28;20037;-66
2022/11/21 12:05:34;;;;;;;13.98;8.32;;;;;;;;;;5053384;28;20489;-65
2022/11/21 12:08:23;;;;;;;15.85;8.40;;;;;;;;;;5053922;28;20084;-66
2022/11/21 12:13:56;;;;;;;11.23;6.97;;;;;;;;;;5052464;28;20386;-66
2022/11/21 12:16:23;;;;;;;11.45;7.35;;;;;;;;;;5068195;28;20036;-67
2022/11/21 12:18:59;;;;;;;11.75;7.22;;;6.20;99.90;;;;;;5062081;28;20040;-67
2022/11/21 12:21:26;;;;;;;11.88;7.70;;;;;;;;;;5064019;28;20115;-66
2022/11/21 12:23:53;;;;;;;12.43;7.88;;;6.00;99.90;;;;;;5063638;28;20081;-66
2022/11/21 12:26:19;;;;;;;13.43;7.18;;;6.60;99.90;;;;;;5064085;28;20089;-66
2022/11/21 12:28:51;;;;;;;12.25;7.82;;;;;;;;;;5051893;28;20041;-66
2022/11/21 12:31:16;;;;;;;12.40;7.70;;;6.30;99.90;;;;;;5055181;28;20044;-67
2022/11/21 12:33:49;;;;;;;12.60;8.18;;;;;;;;;;5050735;28;20398;-67
2022/11/21 12:36:21;;;;;;;11.15;6.57;;;;;;;;;;5051649;28;20044;-66
2022/11/21 12:38:57;;;;;;;10.98;6.95;;;;;;;;;;5052106;28;20044;-68
2022/11/21 12:44:35;;;;;;;11.75;7.22;;;;;;;;;;5066702;28;20037;-67
2022/11/21 12:47:06;;;;;;;11.63;7.38;;;5.90;99.90;;;;;;5059790;28;20331;-68
2022/11/21 12:55:54;;;;;;;13.73;8.15;;;5.70;99.90;;;;;;5064314;28;20040;-65
2022/11/21 12:58:26;;;;;;;11.93;8.02;;;;;;;;;;5062002;28;20510;-65
2022/11/21 13:00:58;;;;;;;15.25;8.93;;;;;;;;;;5057639;28;20048;-66
2022/11/21 13:03:32;;;;;;;12.55;7.95;;;;;;;;;;5059712;28;20402;-65
2022/11/21 13:05:58;;;;;;;16.58;8.77;;;5.70;99.90;;;;;;5057586;28;20044;-67
2022/11/21 13:08:29;;;;;;;15.30;8.95;;;;;;;;;;5054853;28;20116;-65
2022/11/21 13:13:49;;;;;;;16.83;10.13;;;;;;;;;;5055907;28;21441;-67
2022/11/21 13:16:35;;;;;;;14.57;8.80;;;;;;;;;;5071881;28;20032;-68
2022/11/21 13:19:04;;;;;;;15.70;10.07;;;;;;;;;;5070724;28;20048;-66
2022/11/21 13:21:46;;;;;;;16.77;10.77;;;;;;;;;;5065566;28;20087;-66
2022/11/21 13:24:32;;;;;;;16.23;9.73;;;;;;;;;;5050699;28;20041;-66
2022/11/21 13:26:58;;;;;;;15.25;10.00;;;;;;;;;;5053233;28;20052;-68
2022/11/21 13:29:24;;;;;;;16.17;9.68;;;;;;;;;;5062845;28;20040;-66
2022/11/21 13:31:50;;;;;;;15.93;9.63;;;;;;;;;;5059985;28;20478;-65
2022/11/21 13:34:36;;;;;;;16.58;10.27;;;5.80;99.90;;;;;;5063120;28;20037;-66
2022/11/21 13:37:02;;;;;;;16.48;9.55;;;5.70;99.90;;;;;;5052346;28;20075;-66
2022/11/21 13:39:29;;;;;;;16.52;10.07;;;;;;;;;;5066215;28;20049;-65
2022/11/21 13:44:55;;;;;;;17.10;10.68;;;;;;;;;;5028848;28;20395;-65
2022/11/21 13:47:48;;;;;;;18.80;11.20;;;;;;;;;;5053593;28;20449;-66
2022/11/21 13:50:58;;;;;;;20.67;12.18;;;5.60;99.90;;;;;;5068183;28;20036;-67
2022/11/21 13:53:27;;;;;;;17.83;10.52;;;;;;;;;;5101751;22;20049;-54
2022/11/21 13:56:43;;;;;;;17.58;11.35;;;4.50;99.90;;;;;;5014390;28;20128;-54
2022/11/21 13:59:26;;;;;;;19.23;11.73;;;4.90;99.90;;;;;;4999432;28;20496;-54
2022/11/21 14:01:58;;;;;;;20.40;12.50;;;5.00;99.90;;;;;;5008384;28;20270;-53
2022/11/21 14:04:40;;;;;;;21.35;12.35;;;5.20;99.90;;;;;;5004048;28;20045;-54
2022/11/21 14:07:23;;;;;;;21.60;12.68;;;;;;;;;;5001548;28;20038;-53
2022/11/21 14:09:51;;;;;;;20.63;12.32;;;5.10;99.90;;;;;;5002837;28;20103;-54
2022/11/21 14:12:26;;;;;;;19.15;12.05;;;5.00;99.90;;;;;;5001833;28;20044;-53
2022/11/21 14:15:10;;;;;;;20.80;12.35;;;;;;;;;;4995851;28;20045;-55
2022/11/21 14:17:44;;;;;;;19.58;12.20;;;;;;;;;;4998698;28;20038;-54
2022/11/21 14:20:22;;;;;;;21.42;12.43;;;;;;;;;;4989578;28;20609;-53
2022/11/21 14:23:14;;;;;;;22.38;12.10;;;5.40;99.90;;;;;;4990697;28;20065;-55
2022/11/21 14:25:40;;;;;;;20.67;11.68;;;;;;;;;;4994539;28;20038;-54
2022/11/21 14:28:15;;;;;;;20.73;12.25;;;5.30;99.90;;;;;;4996912;28;20038;-54
2022/11/21 14:30:43;;;;;;;19.23;11.82;;;;;;;;;;5001928;28;20088;-54
2022/11/21 14:33:27;;;;;;;20.48;12.80;;;5.40;99.90;;;;;;4997426;28;20039;-55
2022/11/21 14:35:56;;;;;;;18.67;11.50;;;;;;;;;;5003043;28;20041;-53
2022/11/21 14:38:22;;;;;;;21.00;12.05;;;;;;;;;;4996709;28;20042;-55
2022/11/21 14:40:48;;;;;;;21.63;12.27;;;;;;;;;;5006198;28;20050;-54
2022/11/21 14:43:31;;;;;;;22.27;12.52;;;4.30;99.90;;;;;;5001039;28;20080;-54